UAAA

Almaty Airport

Almaty, Kazakhstan
TAF UAAA 251700Z 2518/2618 35005MPS 3000 -SHRA BR BKN010 OVC030CB TX14/2609Z TN08/2601Z TEMPO 2518/2522 26008MPS 1500 SHRA BKN003 OVC010CB PROB40 TEMPO 2518/2522 TS TEMPO 2522/2603 0500 RA FG BKN002 OVC010 BECMG 2603/2604 5000 TEMPO 2612/2618 2000 BR FU SCT005 BKN010
Issued Valid From Valid To
Apr-25 @ 17:00 UTC
(an hour ago)
Apr-25 @ 18:00 UTC
(6 minutes ago)
Apr-26 @ 18:00 UTC
(in 24 hours)
Apr-25 @ 18:00 to Apr-26 @ 03:00
TAF UAAA 251700Z 2518/2618 35005MPS 3000 -SHRA BR BKN010 OVC030CB TX14/2609Z TN08/2601Z
Wind Visibility Clouds Conditions
350° at 10 knots 2,993 meters
  • Broken at 1,000' AGL
  • Overcast at 3,000' AGL
  • Light Rain
  • Mist
Temporary Apr-25 @ 18:00 to Apr-25 @ 22:00
TEMPO 2518/2522 26008MPS 1500 SHRA BKN003 OVC010CB
Wind Visibility Clouds Conditions
260° at 16 knots 1,497 meters
  • Broken at 300' AGL
  • Overcast at 1,000' AGL
  • Rain
Temporary  (Probability 40%) Apr-25 @ 18:00 to Apr-25 @ 22:00
PROB40 TEMPO 2518/2522 TS
Conditions
  • Thunderstorm
Temporary Apr-25 @ 22:00 to Apr-26 @ 03:00
TEMPO 2522/2603 0500 RA FG BKN002 OVC010
Visibility Clouds Conditions
499 meters
  • Broken at 200' AGL
  • Overcast at 1,000' AGL
  • Rain
  • Fog
Becoming Apr-26 @ 03:00 to Apr-26 @ 18:00
BECMG 2603/2604 5000
Wind Visibility Clouds Conditions
350° at 10 knots 5,005 meters
  • Broken at 1,000' AGL
  • Overcast at 3,000' AGL
  • Light Rain
  • Mist
Temporary Apr-26 @ 12:00 to Apr-26 @ 18:00
TEMPO 2612/2618 2000 BR FU SCT005 BKN010
Visibility Clouds Conditions
1,996 meters
  • Scattered at 500' AGL
  • Broken at 1,000' AGL
  • Mist
  • Smoke
TAF UAAA 251700Z 2518/2618 35005MPS 3000 -SHRA BR BKN010 OVC030CB TX14/2609Z TN08/2601Z TEMPO 2518/2522 26008MPS 1500 SHRA BKN003 OVC010CB PROB40 TEMPO 2518/2522 TS TEMPO 2522/2603 0500 RA FG BKN002 OVC010 BECMG 2603/2604 5000 TEMPO 2612/2618 2000 BR FU SCT005 BKN010
Issued Apr-25 @ 17:00 UTC
(an hour ago)
Valid From Apr-25 @ 18:00 UTC
(6 minutes ago)
Valid To Apr-26 @ 18:00 UTC
(in 24 hours)
Apr-25 @ 18:00 - Apr-26 @ 03:00
Wind Visibility
350° at 10 knots 2,993 meters
Clouds
  • Broken at 1,000' AGL
  • Overcast at 3,000' AGL
Conditions
  • Light Rain
  • Mist
Temporary Apr-25 @ 18:00 - Apr-25 @ 22:00
Wind Visibility
260° at 16 knots 1,497 meters
Clouds
  • Broken at 300' AGL
  • Overcast at 1,000' AGL
Conditions
  • Rain
Probability 40% Temporary Apr-25 @ 18:00 - Apr-25 @ 22:00
Conditions
  • Thunderstorm
Temporary Apr-25 @ 22:00 - Apr-26 @ 03:00
Clouds
  • Broken at 200' AGL
  • Overcast at 1,000' AGL
Conditions
  • Rain
  • Fog
Becoming Apr-26 @ 03:00 - Apr-26 @ 18:00
Wind Visibility
350° at 10 knots 5,005 meters
Clouds
  • Broken at 1,000' AGL
  • Overcast at 3,000' AGL
Conditions
  • Light Rain
  • Mist
Temporary Apr-26 @ 12:00 - Apr-26 @ 18:00
Clouds
  • Scattered at 500' AGL
  • Broken at 1,000' AGL
Conditions
  • Mist
  • Smoke